sensor_id;sensor_type;location;lat;lon;timestamp;temperature;humidity
3727;DHT22;1879;45.876;12.300;2023-02-11T00:02:10;0.70;62.40
3727;DHT22;1879;45.876;12.300;2023-02-11T00:04:37;0.70;62.90
3727;DHT22;1879;45.876;12.300;2023-02-11T00:07:04;0.60;63.50
3727;DHT22;1879;45.876;12.300;2023-02-11T00:09:30;0.60;63.60
3727;DHT22;1879;45.876;12.300;2023-02-11T00:11:59;0.60;63.80
3727;DHT22;1879;45.876;12.300;2023-02-11T00:14:26;0.60;63.30
3727;DHT22;1879;45.876;12.300;2023-02-11T00:16:53;0.70;63.50
3727;DHT22;1879;45.876;12.300;2023-02-11T00:19:20;0.70;63.80
3727;DHT22;1879;45.876;12.300;2023-02-11T00:21:47;0.80;65.10
3727;DHT22;1879;45.876;12.300;2023-02-11T00:24:14;0.80;66.50
3727;DHT22;1879;45.876;12.300;2023-02-11T00:26:41;0.80;66.10
3727;DHT22;1879;45.876;12.300;2023-02-11T00:29:10;0.90;66.40
3727;DHT22;1879;45.876;12.300;2023-02-11T00:31:36;0.90;67.00
3727;DHT22;1879;45.876;12.300;2023-02-11T00:34:03;0.80;67.30
3727;DHT22;1879;45.876;12.300;2023-02-11T00:36:30;0.70;68.00
3727;DHT22;1879;45.876;12.300;2023-02-11T00:38:58;0.50;67.90
3727;DHT22;1879;45.876;12.300;2023-02-11T00:41:25;0.50;66.40
3727;DHT22;1879;45.876;12.300;2023-02-11T00:43:52;0.50;66.40
3727;DHT22;1879;45.876;12.300;2023-02-11T00:46:21;0.50;66.20
3727;DHT22;1879;45.876;12.300;2023-02-11T00:48:48;0.50;66.10
3727;DHT22;1879;45.876;12.300;2023-02-11T00:51:16;0.50;66.40
3727;DHT22;1879;45.876;12.300;2023-02-11T00:53:43;0.40;66.60
3727;DHT22;1879;45.876;12.300;2023-02-11T00:56:10;0.50;66.40
3727;DHT22;1879;45.876;12.300;2023-02-11T00:58:37;0.50;66.40
3727;DHT22;1879;45.876;12.300;2023-02-11T01:01:04;0.60;66.70
3727;DHT22;1879;45.876;12.300;2023-02-11T01:03:35;0.70;67.50
3727;DHT22;1879;45.876;12.300;2023-02-11T01:06:02;0.70;67.60
3727;DHT22;1879;45.876;12.300;2023-02-11T01:08:29;0.70;68.00
3727;DHT22;1879;45.876;12.300;2023-02-11T01:11:00;0.70;68.30
3727;DHT22;1879;45.876;12.300;2023-02-11T01:13:28;0.60;68.60
3727;DHT22;1879;45.876;12.300;2023-02-11T01:15:56;0.60;69.10
3727;DHT22;1879;45.876;12.300;2023-02-11T01:18:24;0.50;68.60
3727;DHT22;1879;45.876;12.300;2023-02-11T01:20:53;0.40;69.20
3727;DHT22;1879;45.876;12.300;2023-02-11T01:23:20;0.40;69.40
3727;DHT22;1879;45.876;12.300;2023-02-11T01:25:47;0.40;69.50
3727;DHT22;1879;45.876;12.300;2023-02-11T01:28:16;0.40;69.70
3727;DHT22;1879;45.876;12.300;2023-02-11T01:30:44;0.50;69.20
3727;DHT22;1879;45.876;12.300;2023-02-11T01:33:11;0.50;69.70
3727;DHT22;1879;45.876;12.300;2023-02-11T01:35:38;0.50;70.20
3727;DHT22;1879;45.876;12.300;2023-02-11T01:38:08;0.50;70.10
3727;DHT22;1879;45.876;12.300;2023-02-11T01:40:40;0.40;70.40
3727;DHT22;1879;45.876;12.300;2023-02-11T01:43:09;0.30;71.30
3727;DHT22;1879;45.876;12.300;2023-02-11T01:45:59;0.30;71.50
3727;DHT22;1879;45.876;12.300;2023-02-11T01:48:29;0.30;72.60
3727;DHT22;1879;45.876;12.300;2023-02-11T01:51:02;0.30;72.20
3727;DHT22;1879;45.876;12.300;2023-02-11T01:53:33;0.30;73.20
3727;DHT22;1879;45.876;12.300;2023-02-11T01:56:19;0.40;72.90
3727;DHT22;1879;45.876;12.300;2023-02-11T01:59:07;0.40;73.90
3727;DHT22;1879;45.876;12.300;2023-02-11T02:01:38;0.30;74.10
3727;DHT22;1879;45.876;12.300;2023-02-11T02:04:07;0.20;75.70
3727;DHT22;1879;45.876;12.300;2023-02-11T02:06:41;0.20;74.30
3727;DHT22;1879;45.876;12.300;2023-02-11T02:09:16;0.10;73.20
3727;DHT22;1879;45.876;12.300;2023-02-11T02:11:45;0.20;73.70
3727;DHT22;1879;45.876;12.300;2023-02-11T02:14:12;0.20;73.60
3727;DHT22;1879;45.876;12.300;2023-02-11T02:16:39;0.30;73.70
3727;DHT22;1879;45.876;12.300;2023-02-11T02:22:21;0.30;74.20
3727;DHT22;1879;45.876;12.300;2023-02-11T02:27:53;0.20;73.60
3727;DHT22;1879;45.876;12.300;2023-02-11T02:30:46;0.20;73.70
3727;DHT22;1879;45.876;12.300;2023-02-11T02:33:36;0.20;74.50
3727;DHT22;1879;45.876;12.300;2023-02-11T02:36:14;0.20;74.30
3727;DHT22;1879;45.876;12.300;2023-02-11T02:38:49;0.20;73.70
3727;DHT22;1879;45.876;12.300;2023-02-11T02:41:22;0.30;73.70
3727;DHT22;1879;45.876;12.300;2023-02-11T02:43:51;0.30;74.30
3727;DHT22;1879;45.876;12.300;2023-02-11T02:46:19;0.30;73.40
3727;DHT22;1879;45.876;12.300;2023-02-11T02:48:49;0.40;73.70
3727;DHT22;1879;45.876;12.300;2023-02-11T02:51:31;0.40;74.30
3727;DHT22;1879;45.876;12.300;2023-02-11T02:57:16;0.40;74.80
3727;DHT22;1879;45.876;12.300;2023-02-11T02:59:59;0.40;75.50
3727;DHT22;1879;45.876;12.300;2023-02-11T03:02:32;0.30;75.30
3727;DHT22;1879;45.876;12.300;2023-02-11T03:05:05;0.40;75.60
3727;DHT22;1879;45.876;12.300;2023-02-11T03:07:38;0.40;76.30
3727;DHT22;1879;45.876;12.300;2023-02-11T03:10:10;0.40;76.30
3727;DHT22;1879;45.876;12.300;2023-02-11T03:12:40;0.20;77.10
3727;DHT22;1879;45.876;12.300;2023-02-11T03:15:09;0.00;76.50
3727;DHT22;1879;45.876;12.300;2023-02-11T03:17:40;0.00;76.40
3727;DHT22;1879;45.876;12.300;2023-02-11T03:20:11;-0.10;76.00
3727;DHT22;1879;45.876;12.300;2023-02-11T03:22:44;-0.10;76.30
3727;DHT22;1879;45.876;12.300;2023-02-11T03:25:12;0.00;76.50
3727;DHT22;1879;45.876;12.300;2023-02-11T03:27:46;0.00;76.50
3727;DHT22;1879;45.876;12.300;2023-02-11T03:30:17;0.00;76.60
3727;DHT22;1879;45.876;12.300;2023-02-11T03:32:50;0.00;76.20
3727;DHT22;1879;45.876;12.300;2023-02-11T03:35:21;0.10;76.70
3727;DHT22;1879;45.876;12.300;2023-02-11T03:37:51;0.10;76.90
3727;DHT22;1879;45.876;12.300;2023-02-11T03:40:21;0.00;77.00
3727;DHT22;1879;45.876;12.300;2023-02-11T03:42:52;0.00;77.30
3727;DHT22;1879;45.876;12.300;2023-02-11T03:45:22;-0.10;79.10
3727;DHT22;1879;45.876;12.300;2023-02-11T03:47:54;-0.10;79.20
3727;DHT22;1879;45.876;12.300;2023-02-11T03:50:23;-0.10;78.80
3727;DHT22;1879;45.876;12.300;2023-02-11T03:52:53;-0.10;78.50
3727;DHT22;1879;45.876;12.300;2023-02-11T03:55:22;-0.10;78.10
3727;DHT22;1879;45.876;12.300;2023-02-11T03:57:51;0.00;78.30
3727;DHT22;1879;45.876;12.300;2023-02-11T04:00:18;-0.10;79.80
3727;DHT22;1879;45.876;12.300;2023-02-11T04:02:45;-0.10;78.50
3727;DHT22;1879;45.876;12.300;2023-02-11T04:05:15;0.00;77.00
3727;DHT22;1879;45.876;12.300;2023-02-11T04:07:43;0.10;76.50
3727;DHT22;1879;45.876;12.300;2023-02-11T04:10:11;0.10;76.70
3727;DHT22;1879;45.876;12.300;2023-02-11T04:12:38;0.10;76.70
3727;DHT22;1879;45.876;12.300;2023-02-11T04:15:06;0.10;76.80
3727;DHT22;1879;45.876;12.300;2023-02-11T04:17:33;0.00;77.60
3727;DHT22;1879;45.876;12.300;2023-02-11T04:20:00;0.00;77.50
3727;DHT22;1879;45.876;12.300;2023-02-11T04:22:27;-0.10;78.20
3727;DHT22;1879;45.876;12.300;2023-02-11T04:24:55;-0.10;78.80
3727;DHT22;1879;45.876;12.300;2023-02-11T04:27:22;-0.10;78.30
3727;DHT22;1879;45.876;12.300;2023-02-11T04:29:49;0.00;77.80
3727;DHT22;1879;45.876;12.300;2023-02-11T04:32:16;0.00;77.60
3727;DHT22;1879;45.876;12.300;2023-02-11T04:34:43;0.00;77.60
3727;DHT22;1879;45.876;12.300;2023-02-11T04:37:13;0.10;77.30
3727;DHT22;1879;45.876;12.300;2023-02-11T04:39:40;0.20;75.40
3727;DHT22;1879;45.876;12.300;2023-02-11T04:42:09;0.20;77.80
3727;DHT22;1879;45.876;12.300;2023-02-11T04:44:36;0.10;78.20
3727;DHT22;1879;45.876;12.300;2023-02-11T04:47:03;0.10;77.10
3727;DHT22;1879;45.876;12.300;2023-02-11T04:49:30;0.00;76.60
3727;DHT22;1879;45.876;12.300;2023-02-11T04:51:57;0.00;76.00
3727;DHT22;1879;45.876;12.300;2023-02-11T04:54:24;0.00;75.60
3727;DHT22;1879;45.876;12.300;2023-02-11T04:56:51;0.00;75.40
3727;DHT22;1879;45.876;12.300;2023-02-11T04:59:20;0.00;75.20
3727;DHT22;1879;45.876;12.300;2023-02-11T05:01:47;0.00;74.70
3727;DHT22;1879;45.876;12.300;2023-02-11T05:04:14;0.10;74.50
3727;DHT22;1879;45.876;12.300;2023-02-11T05:06:41;0.10;74.60
3727;DHT22;1879;45.876;12.300;2023-02-11T05:09:09;0.10;74.90
3727;DHT22;1879;45.876;12.300;2023-02-11T05:11:36;0.10;74.80
3727;DHT22;1879;45.876;12.300;2023-02-11T05:14:04;0.10;74.70
3727;DHT22;1879;45.876;12.300;2023-02-11T05:16:33;0.10;74.30
3727;DHT22;1879;45.876;12.300;2023-02-11T05:19:00;0.20;73.90
3727;DHT22;1879;45.876;12.300;2023-02-11T05:21:27;0.30;73.70
3727;DHT22;1879;45.876;12.300;2023-02-11T05:23:54;0.30;73.30
3727;DHT22;1879;45.876;12.300;2023-02-11T05:26:21;0.40;73.40
3727;DHT22;1879;45.876;12.300;2023-02-11T05:28:48;0.40;74.80
3727;DHT22;1879;45.876;12.300;2023-02-11T05:31:15;0.20;75.80
3727;DHT22;1879;45.876;12.300;2023-02-11T05:33:44;0.20;74.80
3727;DHT22;1879;45.876;12.300;2023-02-11T05:36:12;0.20;74.00
3727;DHT22;1879;45.876;12.300;2023-02-11T05:38:39;0.20;73.50
3727;DHT22;1879;45.876;12.300;2023-02-11T05:41:08;0.30;72.90
3727;DHT22;1879;45.876;12.300;2023-02-11T05:43:35;0.30;73.70
3727;DHT22;1879;45.876;12.300;2023-02-11T05:46:03;0.30;73.60
3727;DHT22;1879;45.876;12.300;2023-02-11T05:48:30;0.30;73.10
3727;DHT22;1879;45.876;12.300;2023-02-11T05:50:58;0.30;73.80
3727;DHT22;1879;45.876;12.300;2023-02-11T05:53:25;0.20;73.30
3727;DHT22;1879;45.876;12.300;2023-02-11T05:55:52;0.30;73.30
3727;DHT22;1879;45.876;12.300;2023-02-11T05:58:19;0.30;73.20
3727;DHT22;1879;45.876;12.300;2023-02-11T06:00:46;0.30;73.20
3727;DHT22;1879;45.876;12.300;2023-02-11T06:03:13;0.30;73.40
3727;DHT22;1879;45.876;12.300;2023-02-11T06:05:41;0.30;73.00
3727;DHT22;1879;45.876;12.300;2023-02-11T06:08:10;0.50;72.30
3727;DHT22;1879;45.876;12.300;2023-02-11T06:10:37;0.50;72.30
3727;DHT22;1879;45.876;12.300;2023-02-11T06:13:07;0.50;72.90
3727;DHT22;1879;45.876;12.300;2023-02-11T06:15:34;0.50;73.80
3727;DHT22;1879;45.876;12.300;2023-02-11T06:18:01;0.40;73.90
3727;DHT22;1879;45.876;12.300;2023-02-11T06:20:28;0.30;74.30
3727;DHT22;1879;45.876;12.300;2023-02-11T06:22:55;0.30;74.20
3727;DHT22;1879;45.876;12.300;2023-02-11T06:25:23;0.20;74.60
3727;DHT22;1879;45.876;12.300;2023-02-11T06:27:50;0.20;74.20
3727;DHT22;1879;45.876;12.300;2023-02-11T06:30:17;0.20;74.80
3727;DHT22;1879;45.876;12.300;2023-02-11T06:32:44;0.30;72.70
3727;DHT22;1879;45.876;12.300;2023-02-11T06:35:11;0.40;73.60
3727;DHT22;1879;45.876;12.300;2023-02-11T06:37:39;0.40;73.30
3727;DHT22;1879;45.876;12.300;2023-02-11T06:40:06;0.50;73.50
3727;DHT22;1879;45.876;12.300;2023-02-11T06:42:34;0.40;74.10
3727;DHT22;1879;45.876;12.300;2023-02-11T06:45:03;0.40;73.30
3727;DHT22;1879;45.876;12.300;2023-02-11T06:47:31;0.40;74.10
3727;DHT22;1879;45.876;12.300;2023-02-11T06:49:57;0.40;74.10
3727;DHT22;1879;45.876;12.300;2023-02-11T06:52:25;0.40;74.20
3727;DHT22;1879;45.876;12.300;2023-02-11T06:54:51;0.40;73.50
3727;DHT22;1879;45.876;12.300;2023-02-11T06:57:18;0.50;73.10
3727;DHT22;1879;45.876;12.300;2023-02-11T06:59:47;0.60;73.50
3727;DHT22;1879;45.876;12.300;2023-02-11T07:02:14;0.50;74.40
3727;DHT22;1879;45.876;12.300;2023-02-11T07:04:41;0.60;74.30
3727;DHT22;1879;45.876;12.300;2023-02-11T07:07:08;0.70;73.90
3727;DHT22;1879;45.876;12.300;2023-02-11T07:09:35;0.80;73.10
3727;DHT22;1879;45.876;12.300;2023-02-11T07:12:02;0.90;73.40
3727;DHT22;1879;45.876;12.300;2023-02-11T07:14:29;0.90;73.20
3727;DHT22;1879;45.876;12.300;2023-02-11T07:16:58;1.00;72.90
3727;DHT22;1879;45.876;12.300;2023-02-11T07:19:25;1.10;72.60
3727;DHT22;1879;45.876;12.300;2023-02-11T07:21:52;1.20;73.20
3727;DHT22;1879;45.876;12.300;2023-02-11T07:24:19;1.30;72.80
3727;DHT22;1879;45.876;12.300;2023-02-11T07:26:46;1.40;72.90
3727;DHT22;1879;45.876;12.300;2023-02-11T07:29:13;1.40;72.70
3727;DHT22;1879;45.876;12.300;2023-02-11T07:31:40;1.60;72.30
3727;DHT22;1879;45.876;12.300;2023-02-11T07:34:10;1.70;72.60
3727;DHT22;1879;45.876;12.300;2023-02-11T07:36:37;1.80;72.80
3727;DHT22;1879;45.876;12.300;2023-02-11T07:39:04;1.90;71.90
3727;DHT22;1879;45.876;12.300;2023-02-11T07:41:31;2.10;71.60
3727;DHT22;1879;45.876;12.300;2023-02-11T07:44:01;2.20;71.80
3727;DHT22;1879;45.876;12.300;2023-02-11T07:46:28;2.30;72.20
3727;DHT22;1879;45.876;12.300;2023-02-11T07:48:55;2.40;72.40
3727;DHT22;1879;45.876;12.300;2023-02-11T07:51:24;2.50;72.00
3727;DHT22;1879;45.876;12.300;2023-02-11T07:53:52;2.60;71.70
3727;DHT22;1879;45.876;12.300;2023-02-11T07:56:20;2.80;72.00
3727;DHT22;1879;45.876;12.300;2023-02-11T07:58:48;2.90;71.80
3727;DHT22;1879;45.876;12.300;2023-02-11T08:01:17;3.00;70.20
3727;DHT22;1879;45.876;12.300;2023-02-11T08:03:44;3.20;69.80
3727;DHT22;1879;45.876;12.300;2023-02-11T08:06:12;3.40;69.00
3727;DHT22;1879;45.876;12.300;2023-02-11T08:08:41;3.50;68.20
3727;DHT22;1879;45.876;12.300;2023-02-11T08:11:10;3.70;67.70
3727;DHT22;1879;45.876;12.300;2023-02-11T08:13:38;3.90;67.90
3727;DHT22;1879;45.876;12.300;2023-02-11T08:16:06;4.00;67.40
3727;DHT22;1879;45.876;12.300;2023-02-11T08:18:34;4.20;66.80
3727;DHT22;1879;45.876;12.300;2023-02-11T08:21:03;4.30;66.00
3727;DHT22;1879;45.876;12.300;2023-02-11T08:23:30;4.50;65.30
3727;DHT22;1879;45.876;12.300;2023-02-11T08:26:01;4.60;65.50
3727;DHT22;1879;45.876;12.300;2023-02-11T08:28:29;4.70;65.10
3727;DHT22;1879;45.876;12.300;2023-02-11T08:30:56;4.80;64.70
3727;DHT22;1879;45.876;12.300;2023-02-11T08:33:23;5.00;66.50
3727;DHT22;1879;45.876;12.300;2023-02-11T08:35:50;5.10;64.80
3727;DHT22;1879;45.876;12.300;2023-02-11T08:38:17;5.30;64.60
3727;DHT22;1879;45.876;12.300;2023-02-11T08:40:44;5.50;62.90
3727;DHT22;1879;45.876;12.300;2023-02-11T08:43:12;5.50;62.50
3727;DHT22;1879;45.876;12.300;2023-02-11T08:45:39;5.50;62.30
3727;DHT22;1879;45.876;12.300;2023-02-11T08:48:06;5.60;62.50
3727;DHT22;1879;45.876;12.300;2023-02-11T08:50:39;5.70;62.50
3727;DHT22;1879;45.876;12.300;2023-02-11T08:53:07;5.80;60.90
3727;DHT22;1879;45.876;12.300;2023-02-11T08:55:34;5.90;59.60
3727;DHT22;1879;45.876;12.300;2023-02-11T08:58:04;6.00;60.20
3727;DHT22;1879;45.876;12.300;2023-02-11T09:00:33;6.10;60.40
3727;DHT22;1879;45.876;12.300;2023-02-11T09:03:02;6.10;59.50
3727;DHT22;1879;45.876;12.300;2023-02-11T09:05:33;6.10;58.40
3727;DHT22;1879;45.876;12.300;2023-02-11T09:08:00;6.30;58.70
3727;DHT22;1879;45.876;12.300;2023-02-11T09:10:28;6.30;59.70
3727;DHT22;1879;45.876;12.300;2023-02-11T09:12:55;6.30;58.80
3727;DHT22;1879;45.876;12.300;2023-02-11T09:15:22;6.40;57.70
3727;DHT22;1879;45.876;12.300;2023-02-11T09:17:50;6.50;57.80
3727;DHT22;1879;45.876;12.300;2023-02-11T09:20:17;6.60;56.60
3727;DHT22;1879;45.876;12.300;2023-02-11T09:22:44;6.70;56.00
3727;DHT22;1879;45.876;12.300;2023-02-11T09:25:11;6.80;55.30
3727;DHT22;1879;45.876;12.300;2023-02-11T09:27:39;6.90;53.50
3727;DHT22;1879;45.876;12.300;2023-02-11T09:30:06;6.90;50.70
3727;DHT22;1879;45.876;12.300;2023-02-11T09:32:33;7.00;50.20
3727;DHT22;1879;45.876;12.300;2023-02-11T09:35:02;7.10;50.30
3727;DHT22;1879;45.876;12.300;2023-02-11T09:37:29;7.10;47.30
3727;DHT22;1879;45.876;12.300;2023-02-11T09:39:56;7.30;46.90
3727;DHT22;1879;45.876;12.300;2023-02-11T09:42:39;7.40;46.90
3727;DHT22;1879;45.876;12.300;2023-02-11T09:45:12;7.60;46.40
3727;DHT22;1879;45.876;12.300;2023-02-11T09:47:47;7.70;45.90
3727;DHT22;1879;45.876;12.300;2023-02-11T09:50:21;7.80;45.10
3727;DHT22;1879;45.876;12.300;2023-02-11T09:52:51;7.90;45.00
3727;DHT22;1879;45.876;12.300;2023-02-11T09:55:22;7.90;44.10
3727;DHT22;1879;45.876;12.300;2023-02-11T09:57:51;7.90;44.10
3727;DHT22;1879;45.876;12.300;2023-02-11T10:00:22;8.00;43.50
3727;DHT22;1879;45.876;12.300;2023-02-11T10:06:06;8.10;42.50
3727;DHT22;1879;45.876;12.300;2023-02-11T10:08:43;8.20;41.40
3727;DHT22;1879;45.876;12.300;2023-02-11T10:11:20;8.40;42.10
3727;DHT22;1879;45.876;12.300;2023-02-11T10:13:57;8.50;41.20
3727;DHT22;1879;45.876;12.300;2023-02-11T10:16:41;8.60;40.50
3727;DHT22;1879;45.876;12.300;2023-02-11T10:19:24;8.70;40.20
3727;DHT22;1879;45.876;12.300;2023-02-11T10:22:05;8.90;40.60
3727;DHT22;1879;45.876;12.300;2023-02-11T10:24:34;9.10;39.70
3727;DHT22;1879;45.876;12.300;2023-02-11T10:27:07;9.10;40.90
3727;DHT22;1879;45.876;12.300;2023-02-11T10:29:44;9.30;42.10
3727;DHT22;1879;45.876;12.300;2023-02-11T10:32:22;9.50;42.40
3727;DHT22;1879;45.876;12.300;2023-02-11T10:34:57;9.80;42.50
3727;DHT22;1879;45.876;12.300;2023-02-11T10:37:28;10.00;41.30
3727;DHT22;1879;45.876;12.300;2023-02-11T10:39:55;10.20;40.80
3727;DHT22;1879;45.876;12.300;2023-02-11T10:42:22;10.30;39.20
3727;DHT22;1879;45.876;12.300;2023-02-11T10:44:57;10.40;39.90
3727;DHT22;1879;45.876;12.300;2023-02-11T10:47:28;10.40;40.30
3727;DHT22;1879;45.876;12.300;2023-02-11T10:49:57;10.60;40.50
3727;DHT22;1879;45.876;12.300;2023-02-11T10:52:30;10.50;39.80
3727;DHT22;1879;45.876;12.300;2023-02-11T10:55:03;10.40;39.30
3727;DHT22;1879;45.876;12.300;2023-02-11T10:57:34;10.30;39.30
3727;DHT22;1879;45.876;12.300;2023-02-11T11:00:07;10.10;37.70
3727;DHT22;1879;45.876;12.300;2023-02-11T11:02:35;10.00;37.90
3727;DHT22;1879;45.876;12.300;2023-02-11T11:05:15;9.90;38.60
3727;DHT22;1879;45.876;12.300;2023-02-11T11:07:53;9.70;38.50
3727;DHT22;1879;45.876;12.300;2023-02-11T11:10:30;9.60;38.20
3727;DHT22;1879;45.876;12.300;2023-02-11T11:13:00;9.50;38.50
3727;DHT22;1879;45.876;12.300;2023-02-11T11:15:28;9.50;39.00
3727;DHT22;1879;45.876;12.300;2023-02-11T11:18:12;9.50;38.90
3727;DHT22;1879;45.876;12.300;2023-02-11T11:20:51;9.50;39.10
3727;DHT22;1879;45.876;12.300;2023-02-11T11:23:22;9.60;39.00
3727;DHT22;1879;45.876;12.300;2023-02-11T11:26:00;9.80;39.20
3727;DHT22;1879;45.876;12.300;2023-02-11T11:28:30;9.90;39.70
3727;DHT22;1879;45.876;12.300;2023-02-11T11:31:01;10.00;39.00
3727;DHT22;1879;45.876;12.300;2023-02-11T11:33:31;10.10;38.70
3727;DHT22;1879;45.876;12.300;2023-02-11T11:36:02;10.40;38.90
3727;DHT22;1879;45.876;12.300;2023-02-11T11:38:36;10.50;39.40
3727;DHT22;1879;45.876;12.300;2023-02-11T11:41:23;11.00;38.60
3727;DHT22;1879;45.876;12.300;2023-02-11T11:43:58;12.10;38.10
3727;DHT22;1879;45.876;12.300;2023-02-11T11:46:29;13.90;37.60
3727;DHT22;1879;45.876;12.300;2023-02-11T11:49:20;15.60;36.50
3727;DHT22;1879;45.876;12.300;2023-02-11T11:51:55;17.40;35.00
3727;DHT22;1879;45.876;12.300;2023-02-11T11:54:27;18.20;32.10
3727;DHT22;1879;45.876;12.300;2023-02-11T11:56:59;18.80;30.20
3727;DHT22;1879;45.876;12.300;2023-02-11T11:59:27;20.20;29.20
3727;DHT22;1879;45.876;12.300;2023-02-11T12:02:14;21.00;28.80
3727;DHT22;1879;45.876;12.300;2023-02-11T12:04:58;21.30;28.10
3727;DHT22;1879;45.876;12.300;2023-02-11T12:07:37;21.00;26.90
3727;DHT22;1879;45.876;12.300;2023-02-11T12:10:33;20.90;26.80
3727;DHT22;1879;45.876;12.300;2023-02-11T12:13:11;21.00;26.00
3727;DHT22;1879;45.876;12.300;2023-02-11T12:15:49;21.60;26.30
3727;DHT22;1879;45.876;12.300;2023-02-11T12:18:38;21.20;25.50
3727;DHT22;1879;45.876;12.300;2023-02-11T12:21:21;20.40;24.80
3727;DHT22;1879;45.876;12.300;2023-02-11T12:24:01;20.40;26.00
3727;DHT22;1879;45.876;12.300;2023-02-11T12:26:40;20.40;25.90
3727;DHT22;1879;45.876;12.300;2023-02-11T12:29:16;19.50;25.00
3727;DHT22;1879;45.876;12.300;2023-02-11T12:31:56;18.00;24.80
3727;DHT22;1879;45.876;12.300;2023-02-11T12:34:37;16.70;25.40
3727;DHT22;1879;45.876;12.300;2023-02-11T12:37:14;17.00;27.10
3727;DHT22;1879;45.876;12.300;2023-02-11T12:39:49;17.70;26.80
3727;DHT22;1879;45.876;12.300;2023-02-11T12:42:35;17.50;26.00
3727;DHT22;1879;45.876;12.300;2023-02-11T12:45:30;17.50;26.30
3727;DHT22;1879;45.876;12.300;2023-02-11T12:48:12;18.80;25.90
3727;DHT22;1879;45.876;12.300;2023-02-11T12:50:53;19.00;25.80
3727;DHT22;1879;45.876;12.300;2023-02-11T12:53:46;18.90;25.90
3727;DHT22;1879;45.876;12.300;2023-02-11T12:56:19;19.90;25.90
3727;DHT22;1879;45.876;12.300;2023-02-11T12:58:51;21.90;25.60
3727;DHT22;1879;45.876;12.300;2023-02-11T13:01:22;23.70;25.50
3727;DHT22;1879;45.876;12.300;2023-02-11T13:03:55;24.50;24.10
3727;DHT22;1879;45.876;12.300;2023-02-11T13:06:28;24.90;23.80
3727;DHT22;1879;45.876;12.300;2023-02-11T13:09:00;25.00;23.20
3727;DHT22;1879;45.876;12.300;2023-02-11T13:11:33;25.40;23.30
3727;DHT22;1879;45.876;12.300;2023-02-11T13:14:08;25.90;22.70
3727;DHT22;1879;45.876;12.300;2023-02-11T13:16:40;25.40;23.00
3727;DHT22;1879;45.876;12.300;2023-02-11T13:19:17;24.90;22.70
3727;DHT22;1879;45.876;12.300;2023-02-11T13:21:59;23.40;22.10
3727;DHT22;1879;45.876;12.300;2023-02-11T13:24:36;23.30;22.60
3727;DHT22;1879;45.876;12.300;2023-02-11T13:27:11;24.50;22.40
3727;DHT22;1879;45.876;12.300;2023-02-11T13:30:19;26.00;22.70
3727;DHT22;1879;45.876;12.300;2023-02-11T13:33:15;26.50;21.40
3727;DHT22;1879;45.876;12.300;2023-02-11T13:35:49;26.80;20.80
3727;DHT22;1879;45.876;12.300;2023-02-11T13:38:36;27.30;21.60
3727;DHT22;1879;45.876;12.300;2023-02-11T13:41:05;26.70;20.90
3727;DHT22;1879;45.876;12.300;2023-02-11T13:43:34;25.60;20.90
3727;DHT22;1879;45.876;12.300;2023-02-11T13:46:04;25.60;21.50
3727;DHT22;1879;45.876;12.300;2023-02-11T13:48:34;25.10;20.60
3727;DHT22;1879;45.876;12.300;2023-02-11T13:51:04;25.00;21.40
3727;DHT22;1879;45.876;12.300;2023-02-11T13:53:44;24.40;20.90
3727;DHT22;1879;45.876;12.300;2023-02-11T13:56:23;24.00;21.50
3727;DHT22;1879;45.876;12.300;2023-02-11T13:58:53;23.70;21.50
3727;DHT22;1879;45.876;12.300;2023-02-11T14:05:00;23.10;21.70
3727;DHT22;1879;45.876;12.300;2023-02-11T14:08:10;22.60;22.30
3727;DHT22;1879;45.876;12.300;2023-02-11T14:10:56;22.20;22.60
3727;DHT22;1879;45.876;12.300;2023-02-11T14:13:25;22.20;22.80
3727;DHT22;1879;45.876;12.300;2023-02-11T14:16:07;21.60;22.80
3727;DHT22;1879;45.876;12.300;2023-02-11T14:18:57;21.10;22.90
3727;DHT22;1879;45.876;12.300;2023-02-11T14:21:32;21.10;23.50
3727;DHT22;1879;45.876;12.300;2023-02-11T14:27:06;20.30;23.70
3727;DHT22;1879;45.876;12.300;2023-02-11T14:29:40;19.40;23.60
3727;DHT22;1879;45.876;12.300;2023-02-11T14:32:18;18.80;24.30
3727;DHT22;1879;45.876;12.300;2023-02-11T14:34:56;18.60;25.00
3727;DHT22;1879;45.876;12.300;2023-02-11T14:37:37;18.20;24.70
3727;DHT22;1879;45.876;12.300;2023-02-11T14:40:23;18.10;25.30
3727;DHT22;1879;45.876;12.300;2023-02-11T14:42:53;17.60;25.50
3727;DHT22;1879;45.876;12.300;2023-02-11T14:45:25;17.20;26.20
3727;DHT22;1879;45.876;12.300;2023-02-11T14:47:56;16.90;26.40
3727;DHT22;1879;45.876;12.300;2023-02-11T14:50:27;16.50;26.70
3727;DHT22;1879;45.876;12.300;2023-02-11T14:53:00;16.50;27.10
3727;DHT22;1879;45.876;12.300;2023-02-11T14:55:32;16.10;27.30
3727;DHT22;1879;45.876;12.300;2023-02-11T14:58:06;15.90;27.50
3727;DHT22;1879;45.876;12.300;2023-02-11T15:00:34;15.40;27.80
3727;DHT22;1879;45.876;12.300;2023-02-11T15:03:01;15.00;28.30
3727;DHT22;1879;45.876;12.300;2023-02-11T15:05:28;14.80;28.70
3727;DHT22;1879;45.876;12.300;2023-02-11T15:07:59;14.50;28.90
3727;DHT22;1879;45.876;12.300;2023-02-11T15:10:30;14.50;29.00
3727;DHT22;1879;45.876;12.300;2023-02-11T15:12:57;14.50;29.20
3727;DHT22;1879;45.876;12.300;2023-02-11T15:15:25;14.40;29.30
3727;DHT22;1879;45.876;12.300;2023-02-11T15:17:53;14.30;29.60
3727;DHT22;1879;45.876;12.300;2023-02-11T15:20:24;14.10;29.40
3727;DHT22;1879;45.876;12.300;2023-02-11T15:22:56;13.90;29.40
3727;DHT22;1879;45.876;12.300;2023-02-11T15:25:26;13.60;29.80
3727;DHT22;1879;45.876;12.300;2023-02-11T15:27:55;13.30;29.80
3727;DHT22;1879;45.876;12.300;2023-02-11T15:30:28;13.20;30.00
3727;DHT22;1879;45.876;12.300;2023-02-11T15:32:56;13.20;30.30
3727;DHT22;1879;45.876;12.300;2023-02-11T15:35:26;13.40;30.30
3727;DHT22;1879;45.876;12.300;2023-02-11T15:37:54;13.50;30.30
3727;DHT22;1879;45.876;12.300;2023-02-11T15:40:24;13.60;30.30
3727;DHT22;1879;45.876;12.300;2023-02-11T15:42:55;13.50;30.00
3727;DHT22;1879;45.876;12.300;2023-02-11T15:45:25;13.30;30.00
3727;DHT22;1879;45.876;12.300;2023-02-11T15:47:57;13.10;30.30
3727;DHT22;1879;45.876;12.300;2023-02-11T15:50:27;12.90;30.60
3727;DHT22;1879;45.876;12.300;2023-02-11T15:52:56;12.70;30.80
3727;DHT22;1879;45.876;12.300;2023-02-11T15:55:25;12.60;30.80
3727;DHT22;1879;45.876;12.300;2023-02-11T15:57:55;12.50;30.80
3727;DHT22;1879;45.876;12.300;2023-02-11T16:00:25;12.40;30.80
3727;DHT22;1879;45.876;12.300;2023-02-11T16:02:54;12.10;30.90
3727;DHT22;1879;45.876;12.300;2023-02-11T16:05:27;11.80;31.40
3727;DHT22;1879;45.876;12.300;2023-02-11T16:07:55;11.50;31.60
3727;DHT22;1879;45.876;12.300;2023-02-11T16:10:25;11.30;32.20
3727;DHT22;1879;45.876;12.300;2023-02-11T16:12:58;11.30;32.60
3727;DHT22;1879;45.876;12.300;2023-02-11T16:15:36;11.00;33.40
3727;DHT22;1879;45.876;12.300;2023-02-11T16:18:13;10.80;33.90
3727;DHT22;1879;45.876;12.300;2023-02-11T16:20:46;10.70;34.80
3727;DHT22;1879;45.876;12.300;2023-02-11T16:23:19;10.60;34.90
3727;DHT22;1879;45.876;12.300;2023-02-11T16:25:47;10.50;35.10
3727;DHT22;1879;45.876;12.300;2023-02-11T16:28:16;10.30;35.50
3727;DHT22;1879;45.876;12.300;2023-02-11T16:30:43;10.10;35.90
3727;DHT22;1879;45.876;12.300;2023-02-11T16:33:10;10.00;36.10
3727;DHT22;1879;45.876;12.300;2023-02-11T16:35:37;9.80;37.30
3727;DHT22;1879;45.876;12.300;2023-02-11T16:38:05;9.70;37.70
3727;DHT22;1879;45.876;12.300;2023-02-11T16:40:32;9.60;37.90
3727;DHT22;1879;45.876;12.300;2023-02-11T16:42:58;9.50;38.30